sensor_id;sensor_type;location;lat;lon;timestamp;P1;durP1;ratioP1;P2;durP2;ratioP2
39584;SDS011;25278;53.674;10.014;2022-09-09T00:00:17;70.03;;;50.40;;
39584;SDS011;25278;53.674;10.014;2022-09-09T00:02:46;74.55;;;49.33;;
39584;SDS011;25278;53.674;10.014;2022-09-09T00:05:23;73.53;;;48.97;;
39584;SDS011;25278;53.674;10.014;2022-09-09T00:08:07;61.42;;;45.80;;
39584;SDS011;25278;53.674;10.014;2022-09-09T00:10:40;69.90;;;46.13;;
39584;SDS011;25278;53.674;10.014;2022-09-09T00:13:20;60.25;;;42.30;;
39584;SDS011;25278;53.674;10.014;2022-09-09T00:21:20;60.78;;;42.25;;
39584;SDS011;25278;53.674;10.014;2022-09-09T00:23:54;79.50;;;45.58;;
39584;SDS011;25278;53.674;10.014;2022-09-09T00:29:38;147.00;;;49.67;;
39584;SDS011;25278;53.674;10.014;2022-09-09T00:32:18;88.28;;;47.05;;
39584;SDS011;25278;53.674;10.014;2022-09-09T00:34:48;148.32;;;48.97;;
39584;SDS011;25278;53.674;10.014;2022-09-09T00:37:20;174.18;;;53.38;;
39584;SDS011;25278;53.674;10.014;2022-09-09T00:39:50;131.95;;;47.03;;
39584;SDS011;25278;53.674;10.014;2022-09-09T00:45:31;276.52;;;55.50;;
39584;SDS011;25278;53.674;10.014;2022-09-09T00:48:19;78.53;;;49.15;;
39584;SDS011;25278;53.674;10.014;2022-09-09T00:50:56;223.82;;;56.63;;
39584;SDS011;25278;53.674;10.014;2022-09-09T00:56:18;266.05;;;60.63;;
39584;SDS011;25278;53.674;10.014;2022-09-09T00:59:00;202.02;;;54.92;;
39584;SDS011;25278;53.674;10.014;2022-09-09T01:01:49;118.50;;;53.75;;
39584;SDS011;25278;53.674;10.014;2022-09-09T01:04:17;290.33;;;60.45;;
39584;SDS011;25278;53.674;10.014;2022-09-09T01:06:51;204.07;;;57.70;;
39584;SDS011;25278;53.674;10.014;2022-09-09T01:09:22;101.60;;;53.58;;
39584;SDS011;25278;53.674;10.014;2022-09-09T01:14:48;426.15;;;65.57;;
39584;SDS011;25278;53.674;10.014;2022-09-09T01:17:19;368.55;;;72.43;;
39584;SDS011;25278;53.674;10.014;2022-09-09T01:25:09;396.95;;;74.72;;
39584;SDS011;25278;53.674;10.014;2022-09-09T01:27:52;244.27;;;70.25;;
39584;SDS011;25278;53.674;10.014;2022-09-09T01:30:25;164.68;;;68.32;;
39584;SDS011;25278;53.674;10.014;2022-09-09T01:32:56;307.17;;;70.10;;
39584;SDS011;25278;53.674;10.014;2022-09-09T01:38:02;265.95;;;70.55;;
39584;SDS011;25278;53.674;10.014;2022-09-09T01:40:28;170.50;;;67.70;;
39584;SDS011;25278;53.674;10.014;2022-09-09T01:42:54;223.88;;;73.80;;
39584;SDS011;25278;53.674;10.014;2022-09-09T01:45:20;160.27;;;70.15;;
39584;SDS011;25278;53.674;10.014;2022-09-09T01:47:47;171.75;;;69.35;;
39584;SDS011;25278;53.674;10.014;2022-09-09T01:50:14;196.18;;;71.75;;
39584;SDS011;25278;53.674;10.014;2022-09-09T01:52:41;171.00;;;69.18;;
39584;SDS011;25278;53.674;10.014;2022-09-09T01:55:08;175.88;;;68.32;;
39584;SDS011;25278;53.674;10.014;2022-09-09T01:57:54;144.85;;;68.38;;
39584;SDS011;25278;53.674;10.014;2022-09-09T02:00:45;205.02;;;68.07;;
39584;SDS011;25278;53.674;10.014;2022-09-09T02:03:28;153.65;;;64.95;;
39584;SDS011;25278;53.674;10.014;2022-09-09T02:08:26;152.75;;;62.75;;
39584;SDS011;25278;53.674;10.014;2022-09-09T02:11:01;131.07;;;61.25;;
39584;SDS011;25278;53.674;10.014;2022-09-09T02:13:36;230.85;;;64.38;;
39584;SDS011;25278;53.674;10.014;2022-09-09T02:16:07;170.60;;;64.15;;
39584;SDS011;25278;53.674;10.014;2022-09-09T02:18:49;152.50;;;64.13;;
39584;SDS011;25278;53.674;10.014;2022-09-09T02:21:22;148.77;;;62.25;;
39584;SDS011;25278;53.674;10.014;2022-09-09T02:23:49;146.82;;;60.35;;
39584;SDS011;25278;53.674;10.014;2022-09-09T02:26:17;117.65;;;59.13;;
39584;SDS011;25278;53.674;10.014;2022-09-09T02:28:46;115.70;;;59.20;;
39584;SDS011;25278;53.674;10.014;2022-09-09T02:31:15;189.52;;;60.40;;
39584;SDS011;25278;53.674;10.014;2022-09-09T02:33:45;108.55;;;54.88;;
39584;SDS011;25278;53.674;10.014;2022-09-09T02:36:17;148.73;;;54.00;;
39584;SDS011;25278;53.674;10.014;2022-09-09T02:38:45;163.38;;;57.97;;
39584;SDS011;25278;53.674;10.014;2022-09-09T02:41:16;160.00;;;56.85;;
39584;SDS011;25278;53.674;10.014;2022-09-09T02:46:17;105.78;;;54.42;;
39584;SDS011;25278;53.674;10.014;2022-09-09T02:48:51;105.97;;;50.58;;
39584;SDS011;25278;53.674;10.014;2022-09-09T02:56:54;113.55;;;51.83;;
39584;SDS011;25278;53.674;10.014;2022-09-09T02:59:21;111.70;;;50.80;;
39584;SDS011;25278;53.674;10.014;2022-09-09T03:01:47;114.90;;;51.63;;
39584;SDS011;25278;53.674;10.014;2022-09-09T03:04:13;99.85;;;49.92;;
39584;SDS011;25278;53.674;10.014;2022-09-09T03:06:39;136.07;;;49.08;;
39584;SDS011;25278;53.674;10.014;2022-09-09T03:09:04;143.90;;;52.88;;
39584;SDS011;25278;53.674;10.014;2022-09-09T03:11:30;326.85;;;55.47;;
39584;SDS011;25278;53.674;10.014;2022-09-09T03:13:56;146.45;;;47.70;;
39584;SDS011;25278;53.674;10.014;2022-09-09T03:16:22;154.90;;;50.40;;
39584;SDS011;25278;53.674;10.014;2022-09-09T03:18:48;218.10;;;52.00;;
39584;SDS011;25278;53.674;10.014;2022-09-09T03:21:14;232.13;;;52.38;;
39584;SDS011;25278;53.674;10.014;2022-09-09T03:23:39;109.57;;;48.90;;
39584;SDS011;25278;53.674;10.014;2022-09-09T03:26:05;110.32;;;48.28;;
39584;SDS011;25278;53.674;10.014;2022-09-09T03:28:31;126.70;;;49.03;;
39584;SDS011;25278;53.674;10.014;2022-09-09T03:31:00;190.48;;;57.75;;
39584;SDS011;25278;53.674;10.014;2022-09-09T03:33:26;88.93;;;51.60;;
39584;SDS011;25278;53.674;10.014;2022-09-09T03:35:53;134.32;;;52.50;;
39584;SDS011;25278;53.674;10.014;2022-09-09T03:38:21;107.95;;;53.60;;
39584;SDS011;25278;53.674;10.014;2022-09-09T03:40:51;95.68;;;52.15;;
39584;SDS011;25278;53.674;10.014;2022-09-09T03:43:22;119.82;;;53.65;;
39584;SDS011;25278;53.674;10.014;2022-09-09T03:45:49;112.30;;;53.03;;
39584;SDS011;25278;53.674;10.014;2022-09-09T03:48:15;136.13;;;52.20;;
39584;SDS011;25278;53.674;10.014;2022-09-09T03:50:45;110.60;;;53.83;;
39584;SDS011;25278;53.674;10.014;2022-09-09T03:53:11;107.47;;;52.53;;
39584;SDS011;25278;53.674;10.014;2022-09-09T03:55:37;113.20;;;52.20;;
39584;SDS011;25278;53.674;10.014;2022-09-09T03:58:02;82.70;;;50.58;;
39584;SDS011;25278;53.674;10.014;2022-09-09T04:00:28;164.73;;;55.00;;
39584;SDS011;25278;53.674;10.014;2022-09-09T04:02:55;92.93;;;52.38;;
39584;SDS011;25278;53.674;10.014;2022-09-09T04:05:22;106.93;;;51.30;;
39584;SDS011;25278;53.674;10.014;2022-09-09T04:07:48;72.43;;;48.83;;
39584;SDS011;25278;53.674;10.014;2022-09-09T04:10:13;85.20;;;49.25;;
39584;SDS011;25278;53.674;10.014;2022-09-09T04:12:40;81.43;;;48.38;;
39584;SDS011;25278;53.674;10.014;2022-09-09T04:15:06;78.15;;;48.67;;
39584;SDS011;25278;53.674;10.014;2022-09-09T04:17:32;99.80;;;52.42;;
39584;SDS011;25278;53.674;10.014;2022-09-09T04:19:58;86.28;;;50.22;;
39584;SDS011;25278;53.674;10.014;2022-09-09T04:22:23;79.80;;;45.60;;
39584;SDS011;25278;53.674;10.014;2022-09-09T04:24:49;89.53;;;50.30;;
39584;SDS011;25278;53.674;10.014;2022-09-09T04:27:14;77.25;;;48.25;;
39584;SDS011;25278;53.674;10.014;2022-09-09T04:29:40;74.88;;;47.70;;
39584;SDS011;25278;53.674;10.014;2022-09-09T04:32:05;85.70;;;48.20;;
39584;SDS011;25278;53.674;10.014;2022-09-09T04:34:31;73.38;;;45.45;;
39584;SDS011;25278;53.674;10.014;2022-09-09T04:36:56;71.53;;;46.05;;
39584;SDS011;25278;53.674;10.014;2022-09-09T04:39:22;94.93;;;46.40;;
39584;SDS011;25278;53.674;10.014;2022-09-09T04:41:47;80.05;;;46.88;;
39584;SDS011;25278;53.674;10.014;2022-09-09T04:44:13;64.25;;;43.97;;
39584;SDS011;25278;53.674;10.014;2022-09-09T04:49:08;58.28;;;41.53;;
39584;SDS011;25278;53.674;10.014;2022-09-09T04:51:33;61.90;;;40.72;;
39584;SDS011;25278;53.674;10.014;2022-09-09T04:53:59;62.45;;;41.95;;
39584;SDS011;25278;53.674;10.014;2022-09-09T04:56:24;60.72;;;40.75;;
39584;SDS011;25278;53.674;10.014;2022-09-09T04:58:53;60.72;;;41.60;;
39584;SDS011;25278;53.674;10.014;2022-09-09T05:01:20;63.05;;;43.28;;
39584;SDS011;25278;53.674;10.014;2022-09-09T05:03:46;52.50;;;38.95;;
39584;SDS011;25278;53.674;10.014;2022-09-09T05:06:17;53.53;;;39.25;;
39584;SDS011;25278;53.674;10.014;2022-09-09T05:08:43;53.78;;;38.13;;
39584;SDS011;25278;53.674;10.014;2022-09-09T05:11:13;55.22;;;40.83;;
39584;SDS011;25278;53.674;10.014;2022-09-09T05:13:41;51.58;;;38.05;;
39584;SDS011;25278;53.674;10.014;2022-09-09T05:16:06;51.38;;;37.85;;
39584;SDS011;25278;53.674;10.014;2022-09-09T05:18:32;47.00;;;36.10;;
39584;SDS011;25278;53.674;10.014;2022-09-09T05:21:01;42.75;;;34.03;;
39584;SDS011;25278;53.674;10.014;2022-09-09T05:23:26;51.03;;;35.90;;
39584;SDS011;25278;53.674;10.014;2022-09-09T05:25:56;40.88;;;32.05;;
39584;SDS011;25278;53.674;10.014;2022-09-09T05:28:22;43.05;;;33.88;;
39584;SDS011;25278;53.674;10.014;2022-09-09T05:31:11;41.15;;;32.38;;
39584;SDS011;25278;53.674;10.014;2022-09-09T05:33:39;41.95;;;31.73;;
39584;SDS011;25278;53.674;10.014;2022-09-09T05:36:08;39.17;;;30.95;;
39584;SDS011;25278;53.674;10.014;2022-09-09T05:38:38;38.60;;;30.40;;
39584;SDS011;25278;53.674;10.014;2022-09-09T05:41:05;36.72;;;31.05;;
39584;SDS011;25278;53.674;10.014;2022-09-09T05:43:32;34.67;;;28.67;;
39584;SDS011;25278;53.674;10.014;2022-09-09T05:45:59;36.40;;;28.17;;
39584;SDS011;25278;53.674;10.014;2022-09-09T05:48:39;36.13;;;28.15;;
39584;SDS011;25278;53.674;10.014;2022-09-09T05:51:08;32.75;;;27.40;;
39584;SDS011;25278;53.674;10.014;2022-09-09T05:53:40;34.30;;;28.52;;
39584;SDS011;25278;53.674;10.014;2022-09-09T05:56:11;31.38;;;27.27;;
39584;SDS011;25278;53.674;10.014;2022-09-09T05:58:41;41.85;;;35.83;;
39584;SDS011;25278;53.674;10.014;2022-09-09T06:01:15;28.95;;;24.60;;
39584;SDS011;25278;53.674;10.014;2022-09-09T06:03:43;33.65;;;26.33;;
39584;SDS011;25278;53.674;10.014;2022-09-09T06:06:10;32.15;;;25.73;;
39584;SDS011;25278;53.674;10.014;2022-09-09T06:08:38;32.30;;;25.70;;
39584;SDS011;25278;53.674;10.014;2022-09-09T06:11:06;28.80;;;25.73;;
39584;SDS011;25278;53.674;10.014;2022-09-09T06:13:33;31.20;;;24.40;;
39584;SDS011;25278;53.674;10.014;2022-09-09T06:16:00;25.55;;;22.60;;
39584;SDS011;25278;53.674;10.014;2022-09-09T06:18:25;28.00;;;23.33;;
39584;SDS011;25278;53.674;10.014;2022-09-09T06:21:01;25.52;;;22.67;;
39584;SDS011;25278;53.674;10.014;2022-09-09T06:23:29;27.05;;;24.10;;
39584;SDS011;25278;53.674;10.014;2022-09-09T06:26:05;25.05;;;22.08;;
39584;SDS011;25278;53.674;10.014;2022-09-09T06:28:35;24.42;;;21.30;;
39584;SDS011;25278;53.674;10.014;2022-09-09T06:31:02;24.83;;;20.20;;
39584;SDS011;25278;53.674;10.014;2022-09-09T06:33:36;44.05;;;38.20;;
39584;SDS011;25278;53.674;10.014;2022-09-09T06:36:05;24.88;;;21.60;;
39584;SDS011;25278;53.674;10.014;2022-09-09T06:38:35;23.33;;;20.63;;
39584;SDS011;25278;53.674;10.014;2022-09-09T06:41:00;22.95;;;18.77;;
39584;SDS011;25278;53.674;10.014;2022-09-09T06:43:26;20.52;;;18.23;;
39584;SDS011;25278;53.674;10.014;2022-09-09T06:45:59;20.88;;;18.88;;
39584;SDS011;25278;53.674;10.014;2022-09-09T06:48:39;21.98;;;18.33;;
39584;SDS011;25278;53.674;10.014;2022-09-09T06:51:10;26.08;;;19.77;;
39584;SDS011;25278;53.674;10.014;2022-09-09T06:53:41;20.55;;;18.50;;
39584;SDS011;25278;53.674;10.014;2022-09-09T06:58:34;21.40;;;19.33;;
39584;SDS011;25278;53.674;10.014;2022-09-09T07:01:04;19.52;;;16.63;;
39584;SDS011;25278;53.674;10.014;2022-09-09T07:03:31;21.50;;;16.42;;
39584;SDS011;25278;53.674;10.014;2022-09-09T07:05:57;19.27;;;15.60;;
39584;SDS011;25278;53.674;10.014;2022-09-09T07:08:23;17.98;;;13.60;;
39584;SDS011;25278;53.674;10.014;2022-09-09T07:10:49;18.60;;;14.07;;
39584;SDS011;25278;53.674;10.014;2022-09-09T07:13:16;17.48;;;14.82;;
39584;SDS011;25278;53.674;10.014;2022-09-09T07:15:45;15.43;;;12.90;;
39584;SDS011;25278;53.674;10.014;2022-09-09T07:18:11;30.02;;;26.75;;
39584;SDS011;25278;53.674;10.014;2022-09-09T07:20:37;13.60;;;12.30;;
39584;SDS011;25278;53.674;10.014;2022-09-09T07:23:03;12.55;;;11.35;;
39584;SDS011;25278;53.674;10.014;2022-09-09T07:25:28;16.00;;;11.68;;
39584;SDS011;25278;53.674;10.014;2022-09-09T07:27:55;12.07;;;10.68;;
39584;SDS011;25278;53.674;10.014;2022-09-09T07:30:21;11.25;;;9.52;;
39584;SDS011;25278;53.674;10.014;2022-09-09T07:32:47;11.32;;;9.10;;
39584;SDS011;25278;53.674;10.014;2022-09-09T07:35:12;12.82;;;9.85;;
39584;SDS011;25278;53.674;10.014;2022-09-09T07:37:38;13.82;;;8.60;;
39584;SDS011;25278;53.674;10.014;2022-09-09T07:40:04;13.88;;;8.70;;
39584;SDS011;25278;53.674;10.014;2022-09-09T07:42:30;9.95;;;8.15;;
39584;SDS011;25278;53.674;10.014;2022-09-09T07:44:56;9.00;;;7.85;;
39584;SDS011;25278;53.674;10.014;2022-09-09T07:47:22;12.90;;;8.40;;
39584;SDS011;25278;53.674;10.014;2022-09-09T07:49:49;9.98;;;8.25;;
39584;SDS011;25278;53.674;10.014;2022-09-09T07:52:15;8.93;;;7.80;;
39584;SDS011;25278;53.674;10.014;2022-09-09T07:54:41;10.55;;;7.65;;
39584;SDS011;25278;53.674;10.014;2022-09-09T07:57:07;12.65;;;7.63;;
39584;SDS011;25278;53.674;10.014;2022-09-09T07:59:33;10.52;;;6.90;;
39584;SDS011;25278;53.674;10.014;2022-09-09T08:01:59;10.30;;;7.60;;
39584;SDS011;25278;53.674;10.014;2022-09-09T08:04:26;11.55;;;7.90;;
39584;SDS011;25278;53.674;10.014;2022-09-09T08:06:56;8.38;;;6.63;;
39584;SDS011;25278;53.674;10.014;2022-09-09T08:09:23;8.98;;;6.78;;
39584;SDS011;25278;53.674;10.014;2022-09-09T08:11:54;15.80;;;11.52;;
39584;SDS011;25278;53.674;10.014;2022-09-09T08:14:21;8.45;;;5.95;;
39584;SDS011;25278;53.674;10.014;2022-09-09T08:16:48;9.30;;;5.20;;
39584;SDS011;25278;53.674;10.014;2022-09-09T08:19:15;8.73;;;5.47;;
39584;SDS011;25278;53.674;10.014;2022-09-09T08:21:40;7.68;;;4.25;;
39584;SDS011;25278;53.674;10.014;2022-09-09T08:24:07;5.13;;;4.63;;
39584;SDS011;25278;53.674;10.014;2022-09-09T08:26:36;6.95;;;4.75;;
39584;SDS011;25278;53.674;10.014;2022-09-09T08:29:04;8.60;;;5.32;;
39584;SDS011;25278;53.674;10.014;2022-09-09T08:31:35;8.13;;;4.80;;
39584;SDS011;25278;53.674;10.014;2022-09-09T08:34:02;12.88;;;5.03;;
39584;SDS011;25278;53.674;10.014;2022-09-09T08:36:35;5.88;;;4.63;;
39584;SDS011;25278;53.674;10.014;2022-09-09T08:39:07;5.65;;;4.22;;
39584;SDS011;25278;53.674;10.014;2022-09-09T08:52:54;5.43;;;4.22;;
39584;SDS011;25278;53.674;10.014;2022-09-09T08:58:44;7.25;;;3.28;;
39584;SDS011;25278;53.674;10.014;2022-09-09T09:07:28;7.40;;;3.20;;
39584;SDS011;25278;53.674;10.014;2022-09-09T09:09:56;4.68;;;2.70;;
39584;SDS011;25278;53.674;10.014;2022-09-09T09:12:26;6.35;;;3.65;;
39584;SDS011;25278;53.674;10.014;2022-09-09T09:14:54;6.07;;;2.88;;
39584;SDS011;25278;53.674;10.014;2022-09-09T09:17:23;3.55;;;2.30;;
39584;SDS011;25278;53.674;10.014;2022-09-09T09:19:52;4.75;;;2.00;;
39584;SDS011;25278;53.674;10.014;2022-09-09T09:22:22;5.30;;;3.00;;
39584;SDS011;25278;53.674;10.014;2022-09-09T09:29:54;6.47;;;3.47;;
39584;SDS011;25278;53.674;10.014;2022-09-09T09:32:23;7.07;;;3.78;;
39584;SDS011;25278;53.674;10.014;2022-09-09T09:34:56;5.97;;;3.50;;
39584;SDS011;25278;53.674;10.014;2022-09-09T09:37:26;9.60;;;4.28;;
39584;SDS011;25278;53.674;10.014;2022-09-09T09:39:53;5.38;;;3.90;;
39584;SDS011;25278;53.674;10.014;2022-09-09T09:42:19;7.65;;;4.32;;
39584;SDS011;25278;53.674;10.014;2022-09-09T09:44:45;9.88;;;3.67;;
39584;SDS011;25278;53.674;10.014;2022-09-09T09:47:12;5.78;;;3.00;;
39584;SDS011;25278;53.674;10.014;2022-09-09T09:49:39;4.97;;;3.40;;
39584;SDS011;25278;53.674;10.014;2022-09-09T09:52:17;4.97;;;3.15;;
39584;SDS011;25278;53.674;10.014;2022-09-09T09:54:48;7.57;;;3.28;;
39584;SDS011;25278;53.674;10.014;2022-09-09T09:57:14;3.92;;;2.25;;
39584;SDS011;25278;53.674;10.014;2022-09-09T09:59:42;3.58;;;1.80;;
39584;SDS011;25278;53.674;10.014;2022-09-09T10:02:15;5.85;;;2.03;;
39584;SDS011;25278;53.674;10.014;2022-09-09T10:04:41;3.13;;;1.70;;
39584;SDS011;25278;53.674;10.014;2022-09-09T10:07:25;6.15;;;3.03;;
39584;SDS011;25278;53.674;10.014;2022-09-09T10:09:53;5.50;;;3.28;;
39584;SDS011;25278;53.674;10.014;2022-09-09T10:15:35;5.15;;;3.10;;
39584;SDS011;25278;53.674;10.014;2022-09-09T10:22:09;7.05;;;2.90;;
39584;SDS011;25278;53.674;10.014;2022-09-09T10:24:22;7.18;;;2.35;;
39584;SDS011;25278;53.674;10.014;2022-09-09T10:26:58;5.57;;;2.38;;
39584;SDS011;25278;53.674;10.014;2022-09-09T10:29:36;6.88;;;2.92;;
39584;SDS011;25278;53.674;10.014;2022-09-09T10:34:56;5.28;;;1.90;;
39584;SDS011;25278;53.674;10.014;2022-09-09T10:37:34;6.53;;;1.80;;
39584;SDS011;25278;53.674;10.014;2022-09-09T10:42:56;4.65;;;2.13;;
39584;SDS011;25278;53.674;10.014;2022-09-09T10:45:30;5.38;;;1.50;;
39584;SDS011;25278;53.674;10.014;2022-09-09T10:56:41;1.85;;;0.95;;
39584;SDS011;25278;53.674;10.014;2022-09-09T10:59:15;3.45;;;1.15;;
39584;SDS011;25278;53.674;10.014;2022-09-09T11:01:48;4.13;;;1.40;;
39584;SDS011;25278;53.674;10.014;2022-09-09T11:04:19;3.75;;;1.70;;
39584;SDS011;25278;53.674;10.014;2022-09-09T11:06:55;2.67;;;1.10;;
39584;SDS011;25278;53.674;10.014;2022-09-09T11:09:22;2.38;;;1.13;;
39584;SDS011;25278;53.674;10.014;2022-09-09T11:11:52;3.25;;;1.20;;
39584;SDS011;25278;53.674;10.014;2022-09-09T11:19:37;3.25;;;1.30;;
39584;SDS011;25278;53.674;10.014;2022-09-09T11:22:07;3.80;;;1.00;;
39584;SDS011;25278;53.674;10.014;2022-09-09T11:24:47;4.72;;;1.92;;
39584;SDS011;25278;53.674;10.014;2022-09-09T11:32:14;4.22;;;1.10;;
39584;SDS011;25278;53.674;10.014;2022-09-09T11:40:35;3.00;;;1.27;;
39584;SDS011;25278;53.674;10.014;2022-09-09T11:43:10;5.22;;;1.40;;
39584;SDS011;25278;53.674;10.014;2022-09-09T11:45:39;3.58;;;1.27;;
39584;SDS011;25278;53.674;10.014;2022-09-09T11:48:27;5.15;;;1.40;;
39584;SDS011;25278;53.674;10.014;2022-09-09T11:50:57;4.82;;;1.40;;
39584;SDS011;25278;53.674;10.014;2022-09-09T11:53:25;2.92;;;1.20;;
39584;SDS011;25278;53.674;10.014;2022-09-09T11:56:01;5.90;;;1.13;;
39584;SDS011;25278;53.674;10.014;2022-09-09T11:58:28;5.57;;;1.48;;
39584;SDS011;25278;53.674;10.014;2022-09-09T12:01:27;4.13;;;1.15;;
39584;SDS011;25278;53.674;10.014;2022-09-09T12:04:00;3.80;;;1.73;;
39584;SDS011;25278;53.674;10.014;2022-09-09T12:06:32;2.08;;;0.98;;
39584;SDS011;25278;53.674;10.014;2022-09-09T12:09:08;5.68;;;1.40;;
39584;SDS011;25278;53.674;10.014;2022-09-09T12:11:43;6.78;;;1.20;;
39584;SDS011;25278;53.674;10.014;2022-09-09T12:14:19;4.40;;;1.70;;
39584;SDS011;25278;53.674;10.014;2022-09-09T12:16:46;2.70;;;1.10;;
39584;SDS011;25278;53.674;10.014;2022-09-09T12:22:20;5.30;;;1.40;;
39584;SDS011;25278;53.674;10.014;2022-09-09T12:24:33;5.45;;;1.10;;
39584;SDS011;25278;53.674;10.014;2022-09-09T12:27:22;3.83;;;1.70;;
39584;SDS011;25278;53.674;10.014;2022-09-09T12:30:03;4.57;;;1.48;;
39584;SDS011;25278;53.674;10.014;2022-09-09T12:32:35;4.43;;;1.42;;
39584;SDS011;25278;53.674;10.014;2022-09-09T12:35:03;3.75;;;1.20;;
39584;SDS011;25278;53.674;10.014;2022-09-09T12:37:42;4.97;;;1.33;;
39584;SDS011;25278;53.674;10.014;2022-09-09T12:40:19;3.15;;;1.20;;
39584;SDS011;25278;53.674;10.014;2022-09-09T12:42:49;6.43;;;1.25;;
39584;SDS011;25278;53.674;10.014;2022-09-09T12:45:22;2.17;;;1.20;;
39584;SDS011;25278;53.674;10.014;2022-09-09T12:47:51;3.85;;;1.23;;
39584;SDS011;25278;53.674;10.014;2022-09-09T12:50:22;4.55;;;1.33;;
39584;SDS011;25278;53.674;10.014;2022-09-09T12:52:57;7.53;;;1.55;;
39584;SDS011;25278;53.674;10.014;2022-09-09T12:55:35;4.28;;;1.35;;
39584;SDS011;25278;53.674;10.014;2022-09-09T12:58:03;12.77;;;5.85;;
39584;SDS011;25278;53.674;10.014;2022-09-09T13:00:31;6.72;;;1.60;;
39584;SDS011;25278;53.674;10.014;2022-09-09T13:02:59;5.65;;;1.60;;
39584;SDS011;25278;53.674;10.014;2022-09-09T13:05:34;3.28;;;1.33;;
39584;SDS011;25278;53.674;10.014;2022-09-09T13:08:05;4.18;;;1.38;;
39584;SDS011;25278;53.674;10.014;2022-09-09T13:10:37;3.92;;;1.50;;
39584;SDS011;25278;53.674;10.014;2022-09-09T13:13:27;3.50;;;1.67;;
39584;SDS011;25278;53.674;10.014;2022-09-09T13:15:58;6.70;;;1.70;;
39584;SDS011;25278;53.674;10.014;2022-09-09T13:18:26;10.90;;;2.67;;
39584;SDS011;25278;53.674;10.014;2022-09-09T13:21:01;12.45;;;3.38;;
39584;SDS011;25278;53.674;10.014;2022-09-09T13:23:28;5.80;;;2.47;;
39584;SDS011;25278;53.674;10.014;2022-09-09T13:25:56;7.13;;;2.60;;
39584;SDS011;25278;53.674;10.014;2022-09-09T13:28:25;5.90;;;2.65;;
39584;SDS011;25278;53.674;10.014;2022-09-09T13:30:57;8.38;;;2.97;;
39584;SDS011;25278;53.674;10.014;2022-09-09T13:33:40;6.97;;;3.05;;
39584;SDS011;25278;53.674;10.014;2022-09-09T13:36:09;7.80;;;3.30;;
39584;SDS011;25278;53.674;10.014;2022-09-09T13:38:56;10.20;;;3.40;;
39584;SDS011;25278;53.674;10.014;2022-09-09T13:41:34;4.70;;;3.10;;
39584;SDS011;25278;53.674;10.014;2022-09-09T13:44:01;5.13;;;3.00;;
39584;SDS011;25278;53.674;10.014;2022-09-09T13:46:38;7.63;;;3.50;;
39584;SDS011;25278;53.674;10.014;2022-09-09T13:51:35;7.90;;;3.63;;
39584;SDS011;25278;53.674;10.014;2022-09-09T13:54:09;9.63;;;4.30;;
39584;SDS011;25278;53.674;10.014;2022-09-09T13:56:35;16.88;;;5.63;;
39584;SDS011;25278;53.674;10.014;2022-09-09T13:59:02;11.23;;;5.57;;
39584;SDS011;25278;53.674;10.014;2022-09-09T14:01:29;9.05;;;6.13;;
39584;SDS011;25278;53.674;10.014;2022-09-09T14:03:54;9.45;;;5.13;;
39584;SDS011;25278;53.674;10.014;2022-09-09T14:06:20;8.52;;;5.00;;
39584;SDS011;25278;53.674;10.014;2022-09-09T14:08:49;6.95;;;4.70;;
39584;SDS011;25278;53.674;10.014;2022-09-09T14:11:15;7.45;;;4.40;;
39584;SDS011;25278;53.674;10.014;2022-09-09T14:13:41;6.32;;;4.63;;
39584;SDS011;25278;53.674;10.014;2022-09-09T14:16:07;7.47;;;4.20;;
39584;SDS011;25278;53.674;10.014;2022-09-09T14:18:32;7.45;;;4.15;;
39584;SDS011;25278;53.674;10.014;2022-09-09T14:20:59;8.85;;;4.53;;
39584;SDS011;25278;53.674;10.014;2022-09-09T14:23:24;9.57;;;5.30;;
39584;SDS011;25278;53.674;10.014;2022-09-09T14:25:50;9.40;;;4.95;;
39584;SDS011;25278;53.674;10.014;2022-09-09T14:28:17;9.00;;;4.88;;
39584;SDS011;25278;53.674;10.014;2022-09-09T14:30:43;11.05;;;7.22;;
39584;SDS011;25278;53.674;10.014;2022-09-09T14:33:12;11.20;;;6.53;;
39584;SDS011;25278;53.674;10.014;2022-09-09T14:35:39;9.20;;;4.93;;
39584;SDS011;25278;53.674;10.014;2022-09-09T14:38:06;9.73;;;4.88;;
39584;SDS011;25278;53.674;10.014;2022-09-09T14:40:33;9.93;;;5.55;;
39584;SDS011;25278;53.674;10.014;2022-09-09T14:43:00;10.02;;;6.07;;
39584;SDS011;25278;53.674;10.014;2022-09-09T14:45:27;8.60;;;5.20;;
39584;SDS011;25278;53.674;10.014;2022-09-09T14:47:53;8.18;;;5.07;;
39584;SDS011;25278;53.674;10.014;2022-09-09T14:50:19;11.90;;;9.63;;
39584;SDS011;25278;53.674;10.014;2022-09-09T14:52:45;9.57;;;8.57;;
39584;SDS011;25278;53.674;10.014;2022-09-09T14:55:11;7.22;;;5.93;;
39584;SDS011;25278;53.674;10.014;2022-09-09T14:57:37;12.95;;;6.75;;
39584;SDS011;25278;53.674;10.014;2022-09-09T15:00:04;11.45;;;7.00;;
39584;SDS011;25278;53.674;10.014;2022-09-09T15:02:31;8.98;;;5.43;;
39584;SDS011;25278;53.674;10.014;2022-09-09T15:04:56;9.25;;;4.97;;
39584;SDS011;25278;53.674;10.014;2022-09-09T15:07:23;14.38;;;7.95;;
39584;SDS011;25278;53.674;10.014;2022-09-09T15:09:49;7.45;;;5.43;;
39584;SDS011;25278;53.674;10.014;2022-09-09T15:12:15;6.95;;;5.65;;
39584;SDS011;25278;53.674;10.014;2022-09-09T15:14:43;10.43;;;5.63;;
39584;SDS011;25278;53.674;10.014;2022-09-09T15:17:09;9.13;;;5.60;;
39584;SDS011;25278;53.674;10.014;2022-09-09T15:19:34;7.65;;;4.72;;
39584;SDS011;25278;53.674;10.014;2022-09-09T15:22:01;7.03;;;4.40;;
39584;SDS011;25278;53.674;10.014;2022-09-09T15:24:28;10.52;;;5.10;;
39584;SDS011;25278;53.674;10.014;2022-09-09T15:26:53;6.93;;;4.47;;
39584;SDS011;25278;53.674;10.014;2022-09-09T15:29:19;8.02;;;5.10;;
39584;SDS011;25278;53.674;10.014;2022-09-09T15:31:45;6.65;;;4.55;;
39584;SDS011;25278;53.674;10.014;2022-09-09T15:34:11;9.30;;;4.32;;
39584;SDS011;25278;53.674;10.014;2022-09-09T15:36:45;6.65;;;4.43;;
39584;SDS011;25278;53.674;10.014;2022-09-09T15:39:14;5.88;;;3.17;;
39584;SDS011;25278;53.674;10.014;2022-09-09T15:41:42;4.88;;;2.92;;
39584;SDS011;25278;53.674;10.014;2022-09-09T15:44:09;4.03;;;2.60;;
39584;SDS011;25278;53.674;10.014;2022-09-09T15:46:58;4.68;;;2.55;;
39584;SDS011;25278;53.674;10.014;2022-09-09T15:49:24;7.05;;;4.22;;
39584;SDS011;25278;53.674;10.014;2022-09-09T15:51:59;5.30;;;2.95;;
39584;SDS011;25278;53.674;10.014;2022-09-09T15:54:28;5.35;;;2.58;;
39584;SDS011;25278;53.674;10.014;2022-09-09T15:56:57;5.40;;;2.30;;
39584;SDS011;25278;53.674;10.014;2022-09-09T15:59:24;5.57;;;3.13;;
39584;SDS011;25278;53.674;10.014;2022-09-09T16:01:50;4.85;;;2.70;;
39584;SDS011;25278;53.674;10.014;2022-09-09T16:04:17;8.30;;;4.15;;
39584;SDS011;25278;53.674;10.014;2022-09-09T16:06:48;4.38;;;2.25;;
39584;SDS011;25278;53.674;10.014;2022-09-09T16:09:18;3.97;;;1.60;;
39584;SDS011;25278;53.674;10.014;2022-09-09T16:11:44;2.38;;;1.50;;
39584;SDS011;25278;53.674;10.014;2022-09-09T16:14:12;6.32;;;1.92;;
39584;SDS011;25278;53.674;10.014;2022-09-09T16:16:38;4.28;;;1.70;;
39584;SDS011;25278;53.674;10.014;2022-09-09T16:19:05;3.50;;;1.80;;
39584;SDS011;25278;53.674;10.014;2022-09-09T16:21:35;3.65;;;2.05;;